Coon Rapids, Iowa
Current Conditions -  °F | °C
As of 11:35 PM on Wednesday 22 Oct 2014 (Local Time) from KCIN Reporting Station
Light Rain Light Rain  
Wind Chill: 55°   Ceiling: 3600
Heat Index: 55°   Visibility: 6mi
Dew Point: 55°   Wind: 9mph
Humidity: 100%   Direction: 170°S
Pressure: 30.07"   Gusts: NA
Location:  41.87°N, 94.68°W
Report Text: KCIN 230435Z AUTO 17008KT 6SM -RA SCT031 BKN036 OVC100 13/13 A3007 RMK AO2
Loading
Personal Weather Stations






























Interactive Weather Map
Tropical Storm Tracking
New forecast layout! Learn more

10-Day Weather Forecast

Advertisements
Track Severe Weather on mobile